createdAt,value
2022-08-29T00:03:10.165Z,100550.75
2022-08-29T00:08:13.491Z,100550.94
2022-08-29T00:13:16.881Z,100548.91
2022-08-29T00:18:21.388Z,100561.03
2022-08-29T00:23:24.350Z,100560.53
2022-08-29T00:28:27.383Z,100560.19
2022-08-29T00:33:31.780Z,100562.28
2022-08-29T00:38:34.612Z,100565.06
2022-08-29T00:43:38.334Z,100552.44
2022-08-29T00:48:42.663Z,100559.31
2022-08-29T00:53:48.012Z,100560.59
2022-08-29T00:58:53.510Z,100563.63
2022-08-29T01:03:57.660Z,100570.50
2022-08-29T01:09:00.415Z,100568.66
2022-08-29T01:14:04.240Z,100570.91
2022-08-29T01:19:23.505Z,100566.69
2022-08-29T01:24:37.328Z,100569.66
2022-08-29T01:29:40.086Z,100571.44
2022-08-29T01:34:43.469Z,100575.81
2022-08-29T01:39:47.737Z,100571.41
2022-08-29T01:44:52.332Z,100577.75
2022-08-29T01:49:55.309Z,100574.81
2022-08-29T01:54:59.804Z,100581.47
2022-08-29T02:00:04.112Z,100579.59
2022-08-29T02:05:08.433Z,100582.63
2022-08-29T02:10:12.967Z,100591.75
2022-08-29T02:15:16.588Z,100591.28
2022-08-29T02:20:19.500Z,100594.66
2022-08-29T02:25:41.033Z,100593.09
2022-08-29T02:30:45.769Z,100600.47
2022-08-29T02:35:53.288Z,100599.97
2022-08-29T02:40:57.391Z,100598.19
2022-08-29T02:46:00.160Z,100599.41
2022-08-29T02:51:02.968Z,100604.94
2022-08-29T02:56:07.930Z,100612.09
2022-08-29T03:01:15.483Z,100610.31
2022-08-29T03:06:18.814Z,100605.69
2022-08-29T03:11:23.638Z,100607.34
2022-08-29T03:16:26.714Z,100614.66
2022-08-29T03:21:29.550Z,100607.06
2022-08-29T03:26:33.859Z,100614.66
2022-08-29T03:31:36.624Z,100616.78
2022-08-29T03:36:39.352Z,100606.72
2022-08-29T03:41:43.803Z,100602.78
2022-08-29T03:46:47.354Z,100609.47
2022-08-29T03:51:50.157Z,100602.38
2022-08-29T03:56:55.556Z,100601.56
2022-08-29T04:01:58.651Z,100603.06
2022-08-29T04:07:01.904Z,100595.81
2022-08-29T04:12:06.472Z,100604.56
2022-08-29T04:17:12.253Z,100614.03
2022-08-29T04:22:15.282Z,100608.25
2022-08-29T04:27:19.376Z,100611.25
2022-08-29T04:32:22.564Z,100618.50
2022-08-29T04:37:25.330Z,100620.84
2022-08-29T04:42:30.112Z,100621.00
2022-08-29T04:47:32.890Z,100628.75
2022-08-29T04:52:36.522Z,100636.22
2022-08-29T04:57:41.402Z,100642.84
2022-08-29T05:02:45.194Z,100644.47
2022-08-29T05:07:48.150Z,100647.75
2022-08-29T05:12:52.405Z,100655.03
2022-08-29T05:17:55.277Z,100649.19
2022-08-29T05:22:58.028Z,100655.91
2022-08-29T05:28:02.282Z,100648.81
2022-08-29T05:33:05.007Z,100645.84
2022-08-29T05:38:09.442Z,100649.81
2022-08-29T05:43:14.135Z,100653.31
2022-08-29T05:48:18.351Z,100660.78
2022-08-29T05:53:21.291Z,100667.88
2022-08-29T05:58:25.410Z,100671.00
2022-08-29T06:03:28.429Z,100679.41
2022-08-29T06:08:31.346Z,100683.63
2022-08-29T06:13:35.513Z,100681.66
2022-08-29T06:18:38.235Z,100691.41
2022-08-29T06:23:42.443Z,100696.81
2022-08-29T06:28:46.954Z,100693.66
2022-08-29T06:33:52.304Z,100692.44
2022-08-29T06:38:56.833Z,100704.69
2022-08-29T06:44:01.573Z,100705.47
2022-08-29T06:49:06.040Z,100708.06
2022-08-29T06:54:10.179Z,100713.47
2022-08-29T06:59:14.364Z,100709.25
2022-08-29T07:04:20.771Z,100709.03
2022-08-29T07:09:23.870Z,100705.28
2022-08-29T07:14:28.009Z,100702.72
2022-08-29T07:19:30.700Z,100702.31
2022-08-29T07:24:34.154Z,100709.31
2022-08-29T07:29:38.362Z,100705.84
2022-08-29T07:34:41.170Z,100708.50
2022-08-29T07:39:44.043Z,100705.41
2022-08-29T07:44:49.819Z,100703.66
2022-08-29T07:49:52.517Z,100699.44
2022-08-29T07:54:55.444Z,100705.03
2022-08-29T07:59:59.495Z,100699.66
2022-08-29T08:05:02.371Z,100702.00
2022-08-29T08:10:10.219Z,100709.34
2022-08-29T08:15:15.224Z,100716.38
2022-08-29T08:20:18.118Z,100710.78
2022-08-29T08:25:24.376Z,100713.84
2022-08-29T08:30:30.850Z,100712.56
2022-08-29T08:35:41.989Z,100716.22
2022-08-29T08:40:50.586Z,100721.72
2022-08-29T08:45:55.195Z,100715.09
2022-08-29T08:51:00.414Z,100714.44
2022-08-29T08:56:07.175Z,100706.41
2022-08-29T09:01:18.615Z,100710.16
2022-08-29T09:06:31.567Z,100713.59
2022-08-29T09:11:41.898Z,100706.38
2022-08-29T09:16:49.668Z,100711.78
2022-08-29T09:21:55.255Z,100714.38
2022-08-29T09:26:58.034Z,100705.22
2022-08-29T09:32:11.845Z,100703.44
2022-08-29T09:37:24.795Z,100704.38
2022-08-29T09:42:32.992Z,100700.34
2022-08-29T09:47:37.242Z,100703.53
2022-08-29T09:52:42.301Z,100690.22
2022-08-29T09:57:51.279Z,100701.78
2022-08-29T10:02:57.533Z,100703.63
2022-08-29T10:08:00.808Z,100695.47
2022-08-29T10:13:08.527Z,100703.09
2022-08-29T10:18:25.046Z,100700.91
2022-08-29T10:23:35.902Z,100697.63
2022-08-29T10:28:43.093Z,100702.78
2022-08-29T10:34:01.901Z,100699.28
2022-08-29T10:39:14.883Z,100703.00
2022-08-29T10:44:27.025Z,100693.75
2022-08-29T10:49:45.209Z,100682.22
2022-08-29T10:54:54.382Z,100689.63
2022-08-29T11:00:02.785Z,100692.81
2022-08-29T11:05:10.869Z,100685.72
2022-08-29T11:10:17.833Z,100678.03
2022-08-29T11:15:29.440Z,100678.94
2022-08-29T11:20:37.367Z,100681.25
2022-08-29T11:25:41.882Z,100668.88
2022-08-29T11:30:48.216Z,100675.06
2022-08-29T11:36:04.412Z,100666.63
2022-08-29T11:41:31.253Z,100659.34
2022-08-29T11:46:43.790Z,100665.53
2022-08-29T11:51:51.561Z,100660.47
2022-08-29T11:57:34.225Z,100663.25
2022-08-29T12:02:43.611Z,100669.94
2022-08-29T12:07:54.873Z,100672.44
2022-08-29T12:12:59.058Z,100675.19
2022-08-29T12:18:04.418Z,100669.31
2022-08-29T12:23:19.416Z,100668.59
2022-08-29T12:28:37.593Z,100660.47
2022-08-29T12:33:56.037Z,100658.34
2022-08-29T12:39:19.465Z,100647.00
2022-08-29T12:44:27.384Z,100640.69
2022-08-29T12:49:37.200Z,100636.88
2022-08-29T12:54:45.801Z,100633.38
2022-08-29T12:59:50.499Z,100630.38
2022-08-29T13:04:53.829Z,100632.28
2022-08-29T13:09:59.822Z,100631.28
2022-08-29T13:15:06.324Z,100635.75
2022-08-29T13:20:45.877Z,100626.28
2022-08-29T13:25:54.294Z,100612.47
2022-08-29T13:31:22.547Z,100609.38
2022-08-29T13:36:40.861Z,100607.91
2022-08-29T13:41:46.600Z,100611.41
2022-08-29T13:46:51.464Z,100598.72
2022-08-29T13:51:54.771Z,100602.84
2022-08-29T13:57:02.112Z,100601.88
2022-08-29T14:02:10.057Z,100598.91
2022-08-29T14:07:18.073Z,100603.47
2022-08-29T14:12:33.647Z,100601.34
2022-08-29T14:17:36.984Z,100589.09
2022-08-29T14:22:40.081Z,100586.09
2022-08-29T14:27:44.858Z,100583.00
2022-08-29T14:32:47.892Z,100580.88
2022-08-29T14:37:52.208Z,100575.53
2022-08-29T14:42:56.374Z,100585.84
2022-08-29T14:48:00.018Z,100573.84
2022-08-29T14:53:02.920Z,100571.63
2022-08-29T14:58:07.141Z,100559.63
2022-08-29T15:03:09.955Z,100553.47
2022-08-29T15:08:15.756Z,100557.88
2022-08-29T15:13:20.045Z,100554.31
2022-08-29T15:19:05.457Z,100558.31
2022-08-29T15:23:48.932Z,100549.25
2022-08-29T15:28:54.787Z,100553.06
2022-08-29T15:33:57.758Z,100549.72
2022-08-29T15:39:04.805Z,100544.53
2022-08-29T15:44:08.879Z,100554.19
2022-08-29T15:49:12.648Z,100554.91
2022-08-29T15:54:15.503Z,100540.97
2022-08-29T15:59:30.984Z,100537.41
2022-08-29T16:04:47.319Z,100538.38
2022-08-29T16:09:50.120Z,100539.13
2022-08-29T16:15:04.451Z,100538.41
2022-08-29T16:20:11.740Z,100536.44
2022-08-29T16:25:15.382Z,100524.06
2022-08-29T16:30:20.221Z,100518.44
2022-08-29T16:35:23.329Z,100526.75
2022-08-29T16:40:27.364Z,100525.91
2022-08-29T16:45:31.877Z,100525.44
2022-08-29T16:50:34.699Z,100515.28
2022-08-29T16:55:37.520Z,100521.00
2022-08-29T17:00:42.031Z,100521.25
2022-08-29T17:05:44.835Z,100517.16
2022-08-29T17:10:46.520Z,100520.69
2022-08-29T17:15:49.523Z,100516.06
2022-08-29T17:20:53.991Z,100515.19
2022-08-29T17:25:57.460Z,100506.66
2022-08-29T17:31:01.730Z,100509.81
2022-08-29T17:36:05.674Z,100512.34
2022-08-29T17:41:14.824Z,100516.16
2022-08-29T17:46:21.986Z,100514.13
2022-08-29T17:51:24.814Z,100515.13
2022-08-29T17:56:30.402Z,100516.34
2022-08-29T18:01:35.627Z,100515.38
2022-08-29T18:06:38.810Z,100519.41
2022-08-29T18:11:43.596Z,100524.00
2022-08-29T18:16:47.821Z,100542.75
2022-08-29T18:21:51.412Z,100533.59
2022-08-29T18:26:54.255Z,100549.88
2022-08-29T18:31:58.339Z,100555.06
2022-08-29T18:37:01.106Z,100553.84
2022-08-29T18:42:03.846Z,100563.31
2022-08-29T18:47:08.108Z,100567.84
2022-08-29T18:52:10.815Z,100576.69
2022-08-29T18:57:13.516Z,100577.53
2022-08-29T19:02:17.706Z,100577.53
2022-08-29T19:07:24.356Z,100585.34
2022-08-29T19:12:27.223Z,100587.81
2022-08-29T19:17:31.424Z,100580.41
2022-08-29T19:22:35.139Z,100580.38
2022-08-29T19:27:43.940Z,100591.44
2022-08-29T19:32:48.507Z,100589.41
2022-08-29T19:37:51.694Z,100585.91
2022-08-29T19:42:55.821Z,100590.41
2022-08-29T19:48:01.384Z,100593.88
2022-08-29T19:53:04.195Z,100599.41
2022-08-29T19:58:07.808Z,100604.28
2022-08-29T20:03:12.215Z,100609.81
2022-08-29T20:08:14.953Z,100608.13
2022-08-29T20:13:17.872Z,100610.19
2022-08-29T20:18:22.746Z,100609.13
2022-08-29T20:23:25.654Z,100607.66
2022-08-29T20:28:30.376Z,100611.28
2022-08-29T20:33:37.063Z,100615.94
2022-08-29T20:38:42.387Z,100618.78
2022-08-29T20:43:45.295Z,100619.56
2022-08-29T20:48:49.455Z,100617.69
2022-08-29T20:53:52.150Z,100620.50
2022-08-29T20:58:54.872Z,100625.78
2022-08-29T21:04:20.796Z,100621.06
2022-08-29T21:09:24.203Z,100630.00
2022-08-29T21:14:28.135Z,100631.16
2022-08-29T21:19:33.165Z,100630.94
2022-08-29T21:24:38.214Z,100628.66
2022-08-29T21:29:42.466Z,100629.75
2022-08-29T21:34:46.567Z,100633.25
2022-08-29T21:39:49.891Z,100637.94
2022-08-29T21:44:55.681Z,100631.31
2022-08-29T21:50:00.003Z,100630.38
2022-08-29T21:55:04.942Z,100630.94
2022-08-29T22:00:09.160Z,100630.69
2022-08-29T22:05:13.446Z,100620.69
2022-08-29T22:10:18.582Z,100636.81
2022-08-29T22:15:39.159Z,100626.94
2022-08-29T22:20:43.970Z,100628.16
2022-08-29T22:25:46.788Z,100637.44
2022-08-29T22:30:49.965Z,100639.22
2022-08-29T22:35:54.079Z,100633.28
2022-08-29T22:40:57.344Z,100639.28
2022-08-29T22:46:00.212Z,100638.44
2022-08-29T22:51:04.990Z,100639.88
2022-08-29T22:56:08.092Z,100639.97
2022-08-29T23:01:11.242Z,100640.69
2022-08-29T23:06:15.392Z,100640.69
2022-08-29T23:11:18.378Z,100651.47
2022-08-29T23:16:22.208Z,100649.25
2022-08-29T23:21:26.514Z,100649.06
2022-08-29T23:26:30.188Z,100633.06
2022-08-29T23:31:33.004Z,100632.63
2022-08-29T23:36:37.478Z,100627.66
2022-08-29T23:41:40.813Z,100630.16
2022-08-29T23:46:43.614Z,100639.03
2022-08-29T23:51:48.037Z,100643.13
2022-08-29T23:56:50.820Z,100637.59
